Time;durP1;ratioP1;P1;durP2;ratioP2;P2;SDS_P1;SDS_P2;PMS_P1;PMS_P2;Temp;Humidity;BMP_temperature;BMP_pressure;BME280_temperature;BME280_humidity;BME280_pressure;Samples;Min_cycle;Max_cycle;Signal;HPM_P1;HPM_P2
2022/03/04 00:02:16;;;;;;;11.82;6.60;;;9.10;99.90;;;;;;5052352;28;20085;-86
2022/03/04 00:04:42;;;;;;;9.65;6.07;;;9.10;99.90;;;;;;5051027;28;20482;-86
2022/03/04 00:07:08;;;;;;;10.63;6.10;;;9.20;99.90;;;;;;5047539;28;20021;-86
2022/03/04 00:09:34;;;;;;;10.35;5.80;;;9.20;99.90;;;;;;5049635;28;20036;-86
2022/03/04 00:12:03;;;;;;;8.52;5.45;;;9.20;99.90;;;;;;5051288;28;20013;-86
2022/03/04 00:14:30;;;;;;;10.40;5.47;;;9.20;99.90;;;;;;5051003;28;20032;-86
2022/03/04 00:16:56;;;;;;;11.90;5.57;;;9.20;99.90;;;;;;5052801;28;20498;-86
2022/03/04 00:19:22;;;;;;;10.43;4.90;;;9.30;99.90;;;;;;5051073;28;20036;-86
2022/03/04 00:21:51;;;;;;;12.13;5.35;;;9.30;99.90;;;;;;5046601;28;20021;-86
2022/03/04 00:24:18;;;;;;;11.38;5.60;;;9.40;99.90;;;;;;5050725;28;20025;-86
2022/03/04 00:26:45;;;;;;;8.63;4.47;;;9.40;99.90;;;;;;5043771;28;20017;-86
2022/03/04 00:29:11;;;;;;;7.43;4.22;;;9.40;99.90;;;;;;5049753;28;20078;-86
2022/03/04 00:31:38;;;;;;;9.82;5.28;;;9.40;99.90;;;;;;5050036;28;20025;-86
2022/03/04 00:34:07;;;;;;;9.10;4.95;;;9.50;99.90;;;;;;5050992;28;20025;-86
2022/03/04 00:36:35;;;;;;;9.55;4.65;;;9.50;99.90;;;;;;5050344;28;20253;-86
2022/03/04 00:39:07;;;;;;;8.13;4.45;;;9.50;99.90;;;;;;5050407;28;20029;-86
2022/03/04 00:41:33;;;;;;;7.80;4.97;;;9.50;99.90;;;;;;5050359;28;20029;-86
2022/03/04 00:43:59;;;;;;;10.27;4.55;;;9.50;99.90;;;;;;5050825;28;20036;-86
2022/03/04 00:46:24;;;;;;;9.23;4.60;;;9.60;99.90;;;;;;5046442;28;20028;-86
2022/03/04 00:48:50;;;;;;;9.95;4.93;;;9.60;99.90;;;;;;5048144;28;20044;-86
2022/03/04 00:51:17;;;;;;;8.93;4.85;;;9.60;99.90;;;;;;5045510;28;20509;-86
2022/03/04 00:53:43;;;;;;;9.32;4.93;;;9.60;99.90;;;;;;5049866;28;20029;-86
2022/03/04 00:56:10;;;;;;;9.23;5.07;;;9.60;99.90;;;;;;5052040;28;20037;-86
2022/03/04 00:58:37;;;;;;;11.60;5.60;;;9.60;99.90;;;;;;5050360;28;20086;-86
2022/03/04 01:01:04;;;;;;;8.88;4.60;;;9.60;99.90;;;;;;5049575;28;20040;-86
2022/03/04 01:03:30;;;;;;;10.18;5.60;;;9.70;99.90;;;;;;5049773;28;20029;-86
2022/03/04 01:05:57;;;;;;;9.45;5.57;;;9.60;99.90;;;;;;5048869;28;20493;-86
2022/03/04 01:08:23;;;;;;;8.35;5.15;;;9.70;99.90;;;;;;5029873;28;20025;-86
2022/03/04 01:10:48;;;;;;;10.90;5.35;;;9.70;99.90;;;;;;5051298;28;20025;-86
2022/03/04 01:13:14;;;;;;;9.95;5.85;;;9.70;99.90;;;;;;5049983;28;20104;-86
2022/03/04 01:15:40;;;;;;;7.97;4.88;;;9.70;99.90;;;;;;5049638;28;20024;-86
2022/03/04 01:18:06;;;;;;;10.75;6.38;;;9.70;99.90;;;;;;5049600;28;20028;-86
2022/03/04 01:20:32;;;;;;;8.55;5.93;;;9.70;99.90;;;;;;5049555;28;20025;-85
2022/03/04 01:22:58;;;;;;;7.25;5.95;;;9.70;99.90;;;;;;5050467;28;20411;-86
2022/03/04 01:25:24;;;;;;;6.55;4.55;;;9.70;99.90;;;;;;5046132;28;20029;-85
2022/03/04 01:27:50;;;;;;;7.55;5.30;;;9.70;99.90;;;;;;5049727;28;20421;-86
2022/03/04 01:30:16;;;;;;;7.90;5.50;;;9.70;99.90;;;;;;5050071;28;20025;-86
2022/03/04 01:32:42;;;;;;;9.57;5.03;;;9.70;99.90;;;;;;5033744;28;20096;-86
2022/03/04 01:35:08;;;;;;;6.93;5.30;;;9.80;99.90;;;;;;5051607;28;20108;-86
2022/03/04 01:37:38;;;;;;;6.35;5.75;;;9.80;99.90;;;;;;5049188;28;20033;-86
2022/03/04 01:40:06;;;;;;;7.03;5.97;;;9.80;99.90;;;;;;5049056;28;20055;-86
2022/03/04 01:42:33;;;;;;;8.63;5.80;;;9.80;99.90;;;;;;5048546;28;20086;-86
2022/03/04 01:44:59;;;;;;;6.13;5.03;;;9.80;99.90;;;;;;5049678;28;20048;-86
2022/03/04 01:47:24;;;;;;;5.40;4.78;;;9.80;99.90;;;;;;5046867;28;20536;-86
2022/03/04 01:49:50;;;;;;;5.18;4.05;;;9.90;99.90;;;;;;5029080;28;20712;-86
2022/03/04 01:52:17;;;;;;;5.35;3.83;;;9.90;99.90;;;;;;5025776;28;20575;-86
2022/03/04 01:54:43;;;;;;;4.22;3.47;;;9.80;99.90;;;;;;5029043;28;20040;-86
2022/03/04 01:57:09;;;;;;;5.38;3.13;;;9.80;99.90;;;;;;5016773;28;20151;-86
2022/03/04 01:59:35;;;;;;;4.13;2.90;;;9.80;99.90;;;;;;5028886;28;20556;-85
2022/03/04 02:02:01;;;;;;;3.00;2.28;;;9.80;99.90;;;;;;5029502;28;20028;-85
2022/03/04 02:04:27;;;;;;;2.72;2.03;;;9.80;99.90;;;;;;5024872;28;20030;-86
2022/03/04 02:06:53;;;;;;;2.20;1.83;;;9.70;99.90;;;;;;5026743;28;20040;-86
2022/03/04 02:09:19;;;;;;;1.10;1.00;;;9.70;99.90;;;;;;5028839;28;20605;-86
2022/03/04 02:11:45;;;;;;;1.73;0.90;;;9.70;99.90;;;;;;5016048;28;20505;-86
2022/03/04 02:14:12;;;;;;;1.20;0.93;;;9.70;99.90;;;;;;5031055;28;20029;-86
2022/03/04 02:16:44;;;;;;;1.17;0.80;;;9.70;99.90;;;;;;5028685;28;20017;-86
2022/03/04 02:19:10;;;;;;;1.67;1.00;;;9.70;99.90;;;;;;5028669;28;20030;-86
2022/03/04 02:21:36;;;;;;;1.25;1.02;;;9.70;99.90;;;;;;5028619;28;20025;-86
2022/03/04 02:24:04;;;;;;;1.52;1.20;;;9.70;99.90;;;;;;5028417;28;20029;-86
2022/03/04 02:26:29;;;;;;;0.80;0.80;;;9.70;99.90;;;;;;5027283;28;20535;-86
2022/03/04 02:28:55;;;;;;;0.90;0.90;;;9.70;99.90;;;;;;5030030;28;20156;-86
2022/03/04 02:31:21;;;;;;;0.80;0.80;;;9.70;99.90;;;;;;5028657;28;20023;-85
2022/03/04 02:33:48;;;;;;;0.80;0.80;;;9.70;99.90;;;;;;5028720;28;20029;-86
2022/03/04 02:36:14;;;;;;;1.25;1.13;;;9.70;99.90;;;;;;5028395;28;20021;-85
2022/03/04 02:38:40;;;;;;;2.75;1.45;;;9.70;99.90;;;;;;5028373;28;20140;-86
2022/03/04 02:41:06;;;;;;;1.90;1.08;;;9.60;99.90;;;;;;5029682;28;20515;-86
2022/03/04 02:43:32;;;;;;;0.90;0.60;;;9.60;99.90;;;;;;5024795;28;20026;-86
2022/03/04 02:45:58;;;;;;;0.57;0.52;;;9.60;99.90;;;;;;5026765;28;20033;-86
2022/03/04 02:48:24;;;;;;;0.60;0.60;;;9.60;99.90;;;;;;5029569;28;20021;-86
2022/03/04 02:50:50;;;;;;;0.45;0.45;;;9.60;99.90;;;;;;5046003;28;20048;-86
2022/03/04 02:53:18;;;;;;;0.40;0.40;;;9.50;99.90;;;;;;5050542;28;20671;-86
2022/03/04 02:55:44;;;;;;;0.30;0.30;;;9.50;99.90;;;;;;5048760;28;20029;-86
2022/03/04 02:58:10;;;;;;;0.30;0.30;;;9.50;99.90;;;;;;5048512;28;20094;-85
2022/03/04 03:00:36;;;;;;;0.60;0.60;;;9.50;99.90;;;;;;5047806;28;20498;-86
2022/03/04 03:03:01;;;;;;;0.45;0.45;;;9.50;99.90;;;;;;5047989;28;20060;-85
2022/03/04 03:05:27;;;;;;;0.60;0.60;;;9.40;99.90;;;;;;5046310;28;20047;-86
2022/03/04 03:07:53;;;;;;;0.70;0.60;;;9.40;99.90;;;;;;5048874;28;20031;-86
2022/03/04 03:10:19;;;;;;;1.85;0.77;;;9.40;99.90;;;;;;5048104;28;20104;-86
2022/03/04 03:12:45;;;;;;;0.95;0.85;;;9.40;99.90;;;;;;5030213;28;20498;-86
2022/03/04 03:15:12;;;;;;;0.60;0.60;;;9.40;99.90;;;;;;5048162;28;20082;-86
2022/03/04 03:17:38;;;;;;;0.60;0.60;;;9.40;99.90;;;;;;5037652;28;20048;-86
2022/03/04 03:20:05;;;;;;;1.02;0.75;;;9.40;99.90;;;;;;5048918;28;20056;-86
2022/03/04 03:22:31;;;;;;;0.60;0.60;;;9.30;99.90;;;;;;5043880;28;20111;-85
2022/03/04 03:24:56;;;;;;;2.13;0.90;;;9.30;99.90;;;;;;5045984;28;20117;-86
2022/03/04 03:27:22;;;;;;;1.10;1.00;;;9.30;99.90;;;;;;5047710;28;20032;-86
2022/03/04 03:29:48;;;;;;;0.95;0.82;;;9.30;99.90;;;;;;5049356;28;20028;-85
2022/03/04 03:32:14;;;;;;;2.42;1.00;;;9.30;99.90;;;;;;5053932;28;20025;-86
2022/03/04 03:34:41;;;;;;;1.27;1.17;;;9.30;99.90;;;;;;5045450;28;20070;-86
2022/03/04 03:37:09;;;;;;;1.42;1.30;;;9.30;99.90;;;;;;5044859;28;20036;-86
2022/03/04 03:39:35;;;;;;;1.42;1.17;;;9.30;99.90;;;;;;5051348;28;20050;-86
2022/03/04 03:42:01;;;;;;;1.15;1.05;;;9.30;99.90;;;;;;5051593;28;20029;-86
2022/03/04 03:44:27;;;;;;;2.22;0.70;;;9.30;99.90;;;;;;5049537;28;20104;-86
2022/03/04 03:46:53;;;;;;;1.50;0.70;;;9.30;99.90;;;;;;5052562;28;20549;-86
2022/03/04 03:49:19;;;;;;;1.58;1.15;;;9.30;99.90;;;;;;5047915;28;20055;-86
2022/03/04 03:51:44;;;;;;;1.10;1.10;;;9.30;99.90;;;;;;5051461;28;20017;-86
2022/03/04 03:54:10;;;;;;;1.48;1.20;;;9.30;99.90;;;;;;5051147;28;20063;-86
2022/03/04 03:56:38;;;;;;;1.52;1.02;;;9.30;99.90;;;;;;5050895;28;20059;-86
2022/03/04 03:59:03;;;;;;;1.10;1.00;;;9.20;99.90;;;;;;5052561;28;20053;-86
2022/03/04 04:01:29;;;;;;;1.00;1.00;;;9.30;99.90;;;;;;5046867;28;20056;-86
2022/03/04 04:03:55;;;;;;;0.98;0.88;;;9.20;99.90;;;;;;5048574;28;20063;-85
2022/03/04 04:06:21;;;;;;;1.00;1.00;;;9.20;99.90;;;;;;5032435;28;20029;-86
2022/03/04 04:08:47;;;;;;;1.13;1.13;;;9.10;99.90;;;;;;5050933;28;20017;-86
2022/03/04 04:11:13;;;;;;;1.08;1.00;;;9.10;99.90;;;;;;5053119;28;20104;-86
2022/03/04 04:13:38;;;;;;;1.00;0.85;;;9.10;99.90;;;;;;5051464;28;20043;-86
2022/03/04 04:16:04;;;;;;;2.10;1.17;;;9.10;99.90;;;;;;5051416;28;20486;-86
2022/03/04 04:18:30;;;;;;;2.47;1.20;;;9.20;99.90;;;;;;5050905;28;20021;-86
2022/03/04 04:20:56;;;;;;;1.65;1.55;;;9.10;99.90;;;;;;5051119;28;20033;-86
2022/03/04 04:23:22;;;;;;;2.20;2.00;;;9.20;99.90;;;;;;5049124;28;20029;-86
2022/03/04 04:25:47;;;;;;;2.45;1.95;;;9.20;99.90;;;;;;5052040;28;20028;-86
2022/03/04 04:28:13;;;;;;;3.50;2.25;;;9.20;99.90;;;;;;5050740;28;20490;-86
2022/03/04 04:30:39;;;;;;;2.65;2.40;;;9.20;99.90;;;;;;5050699;28;20367;-86
2022/03/04 04:33:04;;;;;;;3.58;2.97;;;9.20;99.90;;;;;;5049869;28;20062;-86
2022/03/04 04:35:30;;;;;;;3.58;2.45;;;9.20;99.90;;;;;;5050714;28;20071;-86
2022/03/04 04:37:56;;;;;;;3.53;2.85;;;9.30;99.90;;;;;;5051020;28;20026;-86
2022/03/04 04:40:22;;;;;;;3.95;3.13;;;9.30;99.90;;;;;;5046595;28;20411;-85
2022/03/04 04:42:48;;;;;;;4.75;3.20;;;9.20;99.90;;;;;;5048682;28;20653;-86
2022/03/04 04:45:13;;;;;;;5.28;3.67;;;9.30;99.90;;;;;;5050591;28;20490;-85
2022/03/04 04:47:39;;;;;;;5.38;4.25;;;9.30;99.90;;;;;;5016926;28;20029;-85
2022/03/04 04:50:05;;;;;;;4.78;4.28;;;9.30;99.90;;;;;;5052128;28;20104;-86
2022/03/04 04:52:31;;;;;;;5.32;4.18;;;9.30;99.90;;;;;;5048264;28;20033;-86
2022/03/04 04:54:57;;;;;;;6.88;4.35;;;9.30;99.90;;;;;;5050273;28;20037;-86
2022/03/04 04:57:23;;;;;;;5.57;4.50;;;9.30;99.90;;;;;;5048151;28;20549;-86
2022/03/04 04:59:48;;;;;;;6.03;4.10;;;9.30;99.90;;;;;;5045372;28;20545;-86
2022/03/04 05:02:14;;;;;;;5.28;4.00;;;9.30;99.90;;;;;;5052104;28;20017;-86
2022/03/04 05:04:40;;;;;;;4.65;3.78;;;9.30;99.90;;;;;;5049758;28;20490;-85
2022/03/04 05:07:06;;;;;;;5.43;4.50;;;9.30;99.90;;;;;;5049511;28;20024;-86
2022/03/04 05:09:32;;;;;;;4.75;4.10;;;9.30;99.90;;;;;;5050049;28;20021;-86
2022/03/04 05:11:58;;;;;;;5.00;4.13;;;9.30;99.90;;;;;;5030923;28;20396;-86
2022/03/04 05:14:23;;;;;;;5.63;3.20;;;9.20;99.90;;;;;;5050615;28;20033;-86
2022/03/04 05:16:49;;;;;;;4.25;3.22;;;9.20;99.90;;;;;;5051611;28;20065;-86
2022/03/04 05:19:15;;;;;;;4.95;3.47;;;9.20;99.90;;;;;;5048197;28;20027;-86
2022/03/04 05:21:40;;;;;;;4.88;4.03;;;9.20;99.90;;;;;;5049176;28;20403;-86
2022/03/04 05:24:08;;;;;;;4.40;3.40;;;9.20;99.90;;;;;;5050091;28;20025;-86
2022/03/04 05:26:39;;;;;;;3.80;3.40;;;9.20;99.90;;;;;;5048632;28;20087;-86
2022/03/04 05:29:09;;;;;;;3.83;3.15;;;9.20;99.90;;;;;;5051895;28;20021;-86
2022/03/04 05:31:36;;;;;;;3.33;2.75;;;9.20;99.90;;;;;;5048529;28;20100;-86
2022/03/04 05:34:01;;;;;;;2.90;2.60;;;9.20;99.90;;;;;;5049421;28;20029;-86
2022/03/04 05:36:27;;;;;;;3.53;2.85;;;9.20;99.90;;;;;;5047291;28;20105;-86
2022/03/04 05:38:53;;;;;;;4.93;3.00;;;9.20;99.90;;;;;;5049540;28;20064;-86
2022/03/04 05:41:19;;;;;;;5.18;3.30;;;9.20;99.90;;;;;;5050172;28;20024;-85
2022/03/04 05:43:47;;;;;;;3.35;3.05;;;9.20;99.90;;;;;;5050796;28;20025;-86
2022/03/04 05:46:13;;;;;;;3.45;2.72;;;9.20;99.90;;;;;;5049039;28;20207;-86
2022/03/04 05:48:39;;;;;;;3.45;2.78;;;9.20;99.90;;;;;;5048591;28;20071;-86
2022/03/04 05:51:05;;;;;;;3.83;3.10;;;9.20;99.90;;;;;;5038988;28;20029;-86
2022/03/04 05:53:32;;;;;;;4.07;3.67;;;9.20;99.90;;;;;;5031276;28;20025;-86
2022/03/04 05:55:59;;;;;;;4.43;3.60;;;9.20;99.90;;;;;;5048271;28;20017;-87
2022/03/04 05:58:25;;;;;;;8.88;5.10;;;9.20;99.90;;;;;;5048518;28;20517;-86
2022/03/04 06:00:51;;;;;;;6.53;4.50;;;9.10;99.90;;;;;;5049028;28;20109;-86
2022/03/04 06:03:17;;;;;;;6.88;4.65;;;9.10;99.90;;;;;;5048711;28;20108;-86
2022/03/04 06:05:43;;;;;;;6.25;4.05;;;9.10;99.90;;;;;;5049135;28;20583;-86
2022/03/04 06:08:09;;;;;;;6.82;4.00;;;9.10;99.90;;;;;;5050625;28;20025;-86
2022/03/04 06:10:35;;;;;;;8.88;4.45;;;9.10;99.90;;;;;;5048301;28;20028;-86
2022/03/04 06:13:01;;;;;;;6.82;4.30;;;9.10;99.90;;;;;;5048818;28;20029;-86
2022/03/04 06:15:27;;;;;;;6.57;4.78;;;9.10;99.90;;;;;;5045497;28;20036;-86
2022/03/04 06:17:53;;;;;;;6.97;4.85;;;9.10;99.90;;;;;;5048918;28;20029;-86
2022/03/04 06:20:19;;;;;;;6.78;4.07;;;9.10;99.90;;;;;;5049379;28;20048;-86
2022/03/04 06:22:45;;;;;;;8.00;5.05;;;9.10;99.90;;;;;;5049435;28;20025;-86
2022/03/04 06:25:12;;;;;;;7.00;4.68;;;9.10;99.90;;;;;;5048473;28;20529;-86
2022/03/04 06:27:57;;;;;;;8.00;4.90;;;9.10;99.90;;;;;;5048644;28;20102;-86
2022/03/04 06:30:24;;;;;;;7.32;4.68;;;9.00;99.90;;;;;;5036364;28;20025;-86
2022/03/04 06:32:51;;;;;;;5.63;4.35;;;9.10;99.90;;;;;;5048223;28;20074;-85
2022/03/04 06:35:17;;;;;;;7.43;5.15;;;9.00;99.90;;;;;;5046197;28;20017;-85
2022/03/04 06:37:43;;;;;;;7.20;5.35;;;9.10;99.90;;;;;;5046866;28;20078;-86
2022/03/04 06:40:10;;;;;;;7.28;4.57;;;9.10;99.90;;;;;;5048562;28;20021;-86
2022/03/04 06:42:35;;;;;;;6.15;4.72;;;9.00;99.90;;;;;;5048433;28;20108;-86
2022/03/04 06:45:01;;;;;;;7.00;4.57;;;9.00;99.90;;;;;;5048383;28;20147;-85
2022/03/04 06:47:27;;;;;;;6.97;4.88;;;9.00;99.90;;;;;;5048605;28;20025;-86
2022/03/04 06:49:53;;;;;;;8.75;6.25;;;9.00;99.90;;;;;;5049778;28;20041;-85
2022/03/04 06:52:21;;;;;;;6.57;4.78;;;9.00;99.90;;;;;;5048117;28;20056;-86
2022/03/04 06:54:47;;;;;;;6.93;5.00;;;9.00;99.90;;;;;;5045383;28;20021;-85
2022/03/04 06:57:13;;;;;;;6.85;4.65;;;9.00;99.90;;;;;;5048536;28;20027;-85
2022/03/04 06:59:39;;;;;;;6.93;4.30;;;9.00;99.90;;;;;;5048046;28;20382;-85
2022/03/04 07:02:06;;;;;;;6.63;4.78;;;9.00;99.90;;;;;;5049990;28;20029;-85
2022/03/04 07:04:32;;;;;;;8.85;4.75;;;9.00;99.90;;;;;;5051400;28;20079;-85
2022/03/04 07:06:58;;;;;;;8.27;4.30;;;9.00;99.90;;;;;;5051038;28;20457;-85
2022/03/04 07:09:24;;;;;;;8.00;4.70;;;9.00;99.90;;;;;;5050696;28;20461;-86
2022/03/04 07:11:49;;;;;;;8.40;5.40;;;9.00;99.90;;;;;;5052506;28;20444;-86
2022/03/04 07:14:15;;;;;;;6.80;4.47;;;9.00;99.90;;;;;;5050402;28;20513;-86
2022/03/04 07:16:41;;;;;;;7.85;4.75;;;9.00;99.90;;;;;;5050239;28;20420;-86
2022/03/04 07:19:07;;;;;;;9.38;4.40;;;9.10;99.90;;;;;;5052193;28;20032;-86
2022/03/04 07:21:33;;;;;;;7.25;4.38;;;9.10;99.90;;;;;;5051920;28;20133;-86
2022/03/04 07:23:59;;;;;;;7.53;4.57;;;9.10;99.90;;;;;;5051835;28;20553;-86
2022/03/04 07:26:24;;;;;;;4.68;3.60;;;9.10;99.90;;;;;;5052344;28;20075;-86
2022/03/04 07:28:50;;;;;;;4.28;2.90;;;9.10;99.90;;;;;;5053494;28;20713;-86
2022/03/04 07:31:16;;;;;;;6.18;4.30;;;9.10;99.90;;;;;;5051773;28;20029;-85
2022/03/04 07:33:42;;;;;;;4.63;4.03;;;9.10;99.90;;;;;;5051712;28;20509;-85
2022/03/04 07:36:08;;;;;;;3.92;3.03;;;9.10;99.90;;;;;;5051382;28;20580;-85
2022/03/04 07:38:34;;;;;;;3.63;2.60;;;9.10;99.90;;;;;;5051318;28;20033;-85
2022/03/04 07:41:00;;;;;;;2.97;2.60;;;9.10;99.90;;;;;;5053730;28;20049;-85
2022/03/04 07:43:26;;;;;;;2.97;2.60;;;9.10;99.90;;;;;;5045474;28;20025;-86
2022/03/04 07:45:52;;;;;;;3.05;2.70;;;9.10;99.90;;;;;;5043620;28;20040;-86
2022/03/04 07:48:18;;;;;;;2.33;2.13;;;9.10;99.90;;;;;;5049838;28;20062;-86
2022/03/04 07:50:44;;;;;;;2.90;2.50;;;9.10;99.90;;;;;;5042840;28;20037;-86
2022/03/04 07:53:10;;;;;;;1.85;1.75;;;9.10;99.90;;;;;;5049515;28;20028;-86
2022/03/04 07:55:35;;;;;;;2.05;1.85;;;9.10;99.90;;;;;;5049210;28;20087;-86
2022/03/04 07:58:01;;;;;;;1.73;1.63;;;9.10;99.90;;;;;;5051225;28;20044;-86
2022/03/04 08:00:27;;;;;;;1.88;1.60;;;9.10;99.90;;;;;;5051021;28;20031;-86
2022/03/04 08:02:54;;;;;;;2.20;1.88;;;9.20;99.90;;;;;;5051129;28;20029;-86
2022/03/04 08:05:21;;;;;;;2.25;1.77;;;9.20;99.90;;;;;;5040868;28;20025;-85
2022/03/04 08:07:47;;;;;;;1.20;1.10;;;9.20;99.90;;;;;;5029157;28;20028;-86
2022/03/04 08:10:13;;;;;;;0.75;0.75;;;9.20;99.90;;;;;;5046875;28;20021;-86
2022/03/04 08:12:40;;;;;;;3.42;0.85;;;9.10;99.90;;;;;;5047839;28;20017;-85
2022/03/04 08:15:08;;;;;;;1.02;0.93;;;9.00;99.90;;;;;;5050711;28;20025;-86
2022/03/04 08:17:34;;;;;;;0.52;0.52;;;9.00;99.90;;;;;;5051172;28;20053;-86
2022/03/04 08:20:00;;;;;;;0.50;0.50;;;9.00;99.90;;;;;;5053279;28;20063;-86
2022/03/04 08:22:26;;;;;;;0.50;0.50;;;9.00;99.90;;;;;;5049343;28;20632;-86
2022/03/04 08:24:51;;;;;;;0.70;0.70;;;8.90;99.90;;;;;;5050721;28;20043;-86
2022/03/04 08:27:17;;;;;;;0.75;0.70;;;8.90;99.90;;;;;;5048762;28;20020;-86
2022/03/04 08:29:43;;;;;;;0.65;0.65;;;8.90;99.90;;;;;;5050887;28;20473;-86
2022/03/04 08:32:09;;;;;;;0.60;0.60;;;9.00;99.90;;;;;;5052604;28;20565;-86
2022/03/04 08:34:35;;;;;;;0.63;0.63;;;8.90;99.90;;;;;;5050506;28;20115;-85
2022/03/04 08:37:02;;;;;;;0.80;0.80;;;8.90;99.90;;;;;;5050029;28;20034;-85
2022/03/04 08:39:28;;;;;;;0.60;0.60;;;9.00;99.90;;;;;;5050474;28;20517;-86
2022/03/04 08:41:53;;;;;;;0.85;0.80;;;8.90;99.90;;;;;;5049884;28;20028;-85
2022/03/04 08:44:19;;;;;;;0.80;0.80;;;8.90;99.90;;;;;;5051148;28;20057;-86
2022/03/04 08:46:47;;;;;;;1.77;0.75;;;9.00;99.90;;;;;;5049162;28;20498;-86
2022/03/04 08:49:12;;;;;;;0.63;0.63;;;9.00;99.90;;;;;;5050095;28;20102;-86
2022/03/04 08:51:38;;;;;;;0.80;0.80;;;8.90;99.90;;;;;;5040277;28;20025;-86
2022/03/04 08:54:07;;;;;;;0.85;0.85;;;9.00;99.90;;;;;;5050378;28;20104;-86
2022/03/04 08:56:34;;;;;;;1.13;0.80;;;9.00;99.90;;;;;;5049503;28;20013;-86
2022/03/04 08:59:00;;;;;;;0.95;0.60;;;9.00;99.90;;;;;;5052142;28;20025;-86
2022/03/04 09:01:26;;;;;;;0.77;0.70;;;9.10;99.90;;;;;;5050520;28;20028;-86
2022/03/04 09:03:51;;;;;;;2.47;0.90;;;9.00;99.90;;;;;;5049325;28;20406;-86
2022/03/04 09:06:17;;;;;;;0.70;0.70;;;9.10;99.90;;;;;;5048265;28;20033;-86
2022/03/04 09:08:43;;;;;;;1.65;0.70;;;9.10;99.90;;;;;;5050283;28;20025;-85
2022/03/04 09:11:08;;;;;;;1.30;0.98;;;9.10;99.90;;;;;;5047679;28;20021;-85
2022/03/04 09:13:34;;;;;;;1.00;0.85;;;9.10;99.90;;;;;;5048034;28;20557;-86
2022/03/04 09:16:01;;;;;;;1.27;0.60;;;9.10;99.90;;;;;;5049774;28;20029;-85
2022/03/04 09:18:26;;;;;;;1.00;0.90;;;9.10;99.90;;;;;;5049804;28;20052;-85
2022/03/04 09:20:52;;;;;;;0.57;0.57;;;9.10;99.90;;;;;;5048949;28;20064;-86
2022/03/04 09:23:18;;;;;;;0.50;0.50;;;9.10;99.90;;;;;;5050957;28;20490;-86
2022/03/04 09:25:43;;;;;;;0.70;0.47;;;9.10;99.90;;;;;;5050332;28;20028;-85
2022/03/04 09:28:10;;;;;;;0.57;0.50;;;9.20;99.90;;;;;;5048740;28;20032;-85
2022/03/04 09:30:36;;;;;;;0.50;0.50;;;9.10;99.90;;;;;;5047153;28;20044;-85
2022/03/04 09:33:02;;;;;;;0.70;0.70;;;9.20;99.90;;;;;;5049624;28;20486;-85
2022/03/04 09:35:28;;;;;;;0.63;0.63;;;9.10;99.90;;;;;;5049502;28;20033;-85
2022/03/04 09:37:54;;;;;;;0.77;0.60;;;9.20;99.90;;;;;;5051047;28;20040;-85
2022/03/04 09:40:19;;;;;;;0.63;0.50;;;9.10;99.90;;;;;;5049274;28;20123;-85
2022/03/04 09:42:45;;;;;;;0.70;0.70;;;9.10;99.90;;;;;;5049276;28;20020;-85
2022/03/04 09:45:11;;;;;;;0.40;0.40;;;9.10;99.90;;;;;;5047872;28;20021;-85
2022/03/04 09:47:39;;;;;;;0.60;0.60;;;9.10;99.90;;;;;;5049256;28;20040;-85
2022/03/04 09:50:06;;;;;;;1.40;0.90;;;9.20;99.90;;;;;;5042270;28;20061;-85
2022/03/04 09:52:32;;;;;;;1.90;1.70;;;9.10;99.90;;;;;;5046108;28;20048;-85
2022/03/04 09:54:59;;;;;;;1.90;1.80;;;9.20;99.90;;;;;;5049324;28;20450;-85
2022/03/04 09:57:24;;;;;;;1.70;1.60;;;9.20;99.90;;;;;;5048934;28;20029;-85
2022/03/04 09:59:51;;;;;;;1.92;1.83;;;9.20;99.90;;;;;;5048014;28;20029;-85
2022/03/04 10:02:18;;;;;;;1.67;1.58;;;9.20;99.90;;;;;;5022371;28;20507;-85
2022/03/04 10:04:44;;;;;;;2.15;1.45;;;9.10;99.90;;;;;;5047649;28;20028;-85
2022/03/04 10:07:14;;;;;;;1.20;1.10;;;9.10;99.90;;;;;;5044786;28;20536;-86
2022/03/04 10:09:48;;;;;;;1.30;1.20;;;9.10;99.90;;;;;;5046372;28;20033;-85
2022/03/04 10:12:16;;;;;;;1.10;1.00;;;9.10;99.90;;;;;;5048765;28;20220;-85
2022/03/04 10:15:06;;;;;;;1.00;0.90;;;9.10;99.90;;;;;;5048495;28;21076;-86
2022/03/04 10:17:36;;;;;;;1.10;1.00;;;9.10;99.90;;;;;;5048774;28;20044;-85
2022/03/04 10:20:14;;;;;;;1.45;1.35;;;9.10;99.90;;;;;;5050878;28;20033;-85
2022/03/04 10:22:42;;;;;;;1.92;1.70;;;9.10;99.90;;;;;;5047389;28;20029;-85
2022/03/04 10:25:14;;;;;;;1.52;1.35;;;9.00;99.90;;;;;;5047013;28;20532;-85
2022/03/04 10:27:40;;;;;;;3.95;2.67;;;9.00;99.90;;;;;;5036132;28;20223;-85
2022/03/04 10:30:06;;;;;;;5.57;3.50;;;9.00;99.90;;;;;;5049006;28;20053;-85
2022/03/04 10:32:32;;;;;;;5.50;2.90;;;9.00;99.90;;;;;;5048319;28;20013;-85
2022/03/04 10:35:04;;;;;;;4.80;3.03;;;9.00;99.90;;;;;;5050571;28;20108;-85
2022/03/04 10:37:47;;;;;;;5.30;3.08;;;9.10;99.90;;;;;;5047637;28;20067;-85
2022/03/04 10:40:21;;;;;;;3.05;2.53;;;9.10;99.90;;;;;;5048092;28;20040;-85
2022/03/04 10:42:51;;;;;;;5.38;2.70;;;9.10;99.90;;;;;;5046433;28;20017;-85
2022/03/04 10:45:34;;;;;;;11.32;6.32;;;9.10;99.90;;;;;;5048340;28;20361;-85
2022/03/04 10:48:08;;;;;;;19.83;10.75;;;9.10;99.90;;;;;;5041401;28;20048;-85
2022/03/04 10:50:42;;;;;;;10.82;6.93;;;9.10;99.90;;;;;;5041352;28;20115;-85
2022/03/04 10:53:12;;;;;;;9.30;5.57;;;9.10;99.90;;;;;;5050053;28;20029;-85
2022/03/04 10:55:39;;;;;;;8.85;5.05;;;9.10;99.90;;;;;;5047984;28;20029;-85
2022/03/04 10:58:14;;;;;;;8.30;6.28;;;9.20;99.90;;;;;;5048242;28;20052;-85
2022/03/04 11:00:43;;;;;;;9.15;5.20;;;9.20;99.90;;;;;;5048208;28;20029;-86
2022/03/04 11:03:14;;;;;;;9.50;5.82;;;9.20;99.90;;;;;;5047266;28;20082;-86
2022/03/04 11:05:39;;;;;;;3.25;2.70;;;9.20;99.90;;;;;;5048264;28;20029;-86
2022/03/04 11:08:06;;;;;;;2.63;1.98;;;9.10;99.90;;;;;;5045925;28;20412;-85
2022/03/04 11:10:32;;;;;;;3.00;2.65;;;9.10;99.90;;;;;;5046789;28;20561;-85
2022/03/04 11:12:58;;;;;;;5.85;4.35;;;9.20;99.90;;;;;;5048279;28;20100;-85
2022/03/04 11:15:24;;;;;;;4.07;3.47;;;9.20;99.90;;;;;;5048051;28;20029;-85
2022/03/04 11:17:51;;;;;;;4.55;3.55;;;9.10;99.90;;;;;;5048198;28;20067;-85
2022/03/04 11:20:18;;;;;;;3.58;3.28;;;9.10;99.90;;;;;;5050499;28;20025;-85
2022/03/04 11:22:46;;;;;;;4.40;3.58;;;9.10;99.90;;;;;;5048235;28;20056;-85
2022/03/04 11:25:14;;;;;;;3.95;3.30;;;9.10;99.90;;;;;;5048058;28;20063;-85
2022/03/04 11:27:45;;;;;;;7.07;5.13;;;9.00;99.90;;;;;;5044939;28;20017;-85
2022/03/04 11:30:29;;;;;;;3.65;3.00;;;9.00;99.90;;;;;;5030197;28;20032;-85
2022/03/04 11:33:13;;;;;;;1.60;1.50;;;8.90;99.90;;;;;;5036749;28;20055;-85
2022/03/04 11:35:42;;;;;;;1.27;1.17;;;9.00;99.90;;;;;;5047903;28;20064;-85
2022/03/04 11:38:11;;;;;;;2.72;1.80;;;9.00;99.90;;;;;;5049539;28;20033;-85
2022/03/04 11:40:48;;;;;;;5.07;4.63;;;8.90;99.90;;;;;;5047342;28;20107;-85
2022/03/04 11:43:17;;;;;;;4.30;3.90;;;8.90;99.90;;;;;;5046486;28;20033;-85
2022/03/04 11:45:43;;;;;;;1.58;1.48;;;8.90;99.90;;;;;;5035530;28;20051;-85
2022/03/04 11:48:11;;;;;;;0.80;0.80;;;8.90;99.90;;;;;;5047654;28;20503;-85
2022/03/04 11:50:46;;;;;;;0.90;0.90;;;8.90;99.90;;;;;;5043283;28;20057;-85
2022/03/04 11:53:12;;;;;;;0.80;0.80;;;8.90;99.90;;;;;;5053080;28;20124;-85
2022/03/04 11:55:38;;;;;;;0.65;0.65;;;8.90;99.90;;;;;;5051365;28;20534;-85
2022/03/04 11:58:04;;;;;;;0.70;0.70;;;8.90;99.90;;;;;;5051257;28;20037;-85
2022/03/04 12:00:33;;;;;;;0.82;0.82;;;9.00;99.90;;;;;;5048933;28;20021;-85
2022/03/04 12:03:10;;;;;;;1.08;0.90;;;9.10;99.90;;;;;;5051156;28;20502;-85
2022/03/04 12:05:37;;;;;;;1.48;1.20;;;9.10;99.90;;;;;;5051048;28;20033;-85
2022/03/04 12:08:02;;;;;;;1.67;1.30;;;9.20;99.90;;;;;;5050025;28;20024;-85
2022/03/04 12:10:41;;;;;;;2.80;1.20;;;9.10;99.90;;;;;;5050454;28;20029;-85
2022/03/04 12:13:18;;;;;;;0.98;0.88;;;9.10;99.90;;;;;;5051400;28;20074;-85
2022/03/04 12:15:52;;;;;;;0.98;0.80;;;9.20;99.90;;;;;;5051147;28;20028;-85
2022/03/04 12:18:36;;;;;;;1.10;1.00;;;9.20;99.90;;;;;;5039524;28;20104;-85
2022/03/04 12:21:15;;;;;;;1.10;1.00;;;9.30;99.90;;;;;;5046679;28;20033;-85
2022/03/04 12:23:41;;;;;;;1.00;1.00;;;9.30;99.90;;;;;;5051226;28;20037;-85
2022/03/04 12:26:09;;;;;;;2.67;1.17;;;9.30;99.90;;;;;;5030678;28;20036;-85
2022/03/04 12:28:46;;;;;;;0.80;0.80;;;9.30;99.90;;;;;;5049613;28;20024;-85
2022/03/04 12:31:12;;;;;;;0.88;0.88;;;9.20;99.90;;;;;;5046705;28;20025;-85
2022/03/04 12:33:44;;;;;;;1.08;0.95;;;9.10;99.90;;;;;;5051081;28;20028;-85
2022/03/04 12:36:12;;;;;;;1.70;1.15;;;9.20;99.90;;;;;;5050439;28;20530;-85
2022/03/04 12:38:51;;;;;;;0.77;0.77;;;9.10;99.90;;;;;;5039566;28;20162;-85
2022/03/04 12:41:19;;;;;;;2.28;1.15;;;9.10;99.90;;;;;;5052754;28;20120;-84
2022/03/04 12:44:05;;;;;;;1.15;0.90;;;9.20;99.90;;;;;;5051180;28;20048;-85
2022/03/04 12:46:44;;;;;;;2.10;1.65;;;9.20;99.90;;;;;;5047670;28;20035;-84
2022/03/04 12:49:10;;;;;;;1.58;1.48;;;9.20;99.90;;;;;;5045282;28;20045;-85
2022/03/04 12:51:39;;;;;;;1.52;1.42;;;9.10;99.90;;;;;;5047367;28;20021;-85
2022/03/04 12:54:15;;;;;;;1.58;1.45;;;9.10;99.90;;;;;;5050636;28;20024;-85
2022/03/04 12:56:41;;;;;;;3.00;1.60;;;9.20;99.90;;;;;;5050077;28;20029;-85